Time;durP1;ratioP1;P1;durP2;ratioP2;P2;SDS_P1;SDS_P2;PMS_P1;PMS_P2;Temp;Humidity;BMP_temperature;BMP_pressure;BME280_temperature;BME280_humidity;BME280_pressure;Samples;Min_cycle;Max_cycle;Signal;HPM_P1;HPM_P2
2023/05/24 00:00:37;;;;;;;9.83;7.50;;;8.50;99.90;;;;;;5033501;28;20195;-64
2023/05/24 00:03:04;;;;;;;10.03;7.10;;;8.50;99.90;;;;;;5033730;28;20183;-64
2023/05/24 00:05:29;;;;;;;9.90;7.47;;;8.50;99.90;;;;;;5033945;28;20226;-64
2023/05/24 00:07:55;;;;;;;8.87;7.43;;;8.50;99.90;;;;;;5033798;28;20210;-64
2023/05/24 00:10:21;;;;;;;11.70;6.30;;;8.40;99.90;;;;;;5033351;28;20211;-65
2023/05/24 00:12:47;;;;;;;6.93;6.33;;;8.40;99.90;;;;;;5033538;28;20178;-64
2023/05/24 00:15:12;;;;;;;7.70;6.90;;;8.40;99.90;;;;;;5033663;28;20262;-64
2023/05/24 00:17:41;;;;;;;8.33;7.27;;;8.40;99.90;;;;;;5033514;28;20172;-64
2023/05/24 00:20:10;;;;;;;8.07;6.80;;;8.30;99.90;;;;;;5033161;28;20206;-65
2023/05/24 00:22:37;;;;;;;9.50;7.33;;;8.30;99.90;;;;;;5033515;28;20219;-64
2023/05/24 00:25:03;;;;;;;11.83;6.77;;;8.20;99.90;;;;;;5033376;28;22168;-64
2023/05/24 00:27:29;;;;;;;10.63;7.23;;;8.20;99.90;;;;;;5033492;28;20190;-64
2023/05/24 00:29:54;;;;;;;7.60;6.90;;;8.20;99.90;;;;;;5032710;28;20233;-65
2023/05/24 00:32:20;;;;;;;9.10;7.13;;;8.20;99.90;;;;;;5033608;28;20540;-64
2023/05/24 00:34:46;;;;;;;7.90;7.23;;;8.20;99.90;;;;;;5033328;28;20174;-64
2023/05/24 00:37:11;;;;;;;11.30;6.93;;;8.10;99.90;;;;;;5031861;28;20175;-65
2023/05/24 00:39:37;;;;;;;7.93;7.27;;;8.10;99.90;;;;;;5032711;28;20242;-65
2023/05/24 00:42:03;;;;;;;6.97;6.37;;;8.10;99.90;;;;;;5032964;28;20742;-65
2023/05/24 00:44:29;;;;;;;8.43;6.97;;;8.00;99.90;;;;;;5033212;28;20168;-64
2023/05/24 00:46:55;;;;;;;7.93;6.33;;;8.00;99.90;;;;;;5033187;28;20186;-64
2023/05/24 00:49:22;;;;;;;16.00;7.00;;;8.00;99.90;;;;;;5032832;28;20187;-64
2023/05/24 00:51:48;;;;;;;8.53;6.57;;;8.00;99.90;;;;;;5032702;28;21369;-64
2023/05/24 00:54:14;;;;;;;9.03;7.00;;;7.90;99.90;;;;;;5032845;28;20237;-64
2023/05/24 00:56:41;;;;;;;12.17;7.37;;;7.90;99.90;;;;;;5033026;28;20269;-65
2023/05/24 00:59:08;;;;;;;13.87;8.00;;;7.90;99.90;;;;;;5030762;28;20225;-64
2023/05/24 01:01:34;;;;;;;9.53;7.50;;;7.80;99.90;;;;;;5032848;28;20542;-65
2023/05/24 01:03:59;;;;;;;9.80;7.87;;;7.80;99.90;;;;;;5032476;28;20176;-65
2023/05/24 01:06:26;;;;;;;10.43;8.93;;;7.80;99.90;;;;;;5032487;28;20193;-64
2023/05/24 01:09:43;;;;;;;9.67;7.70;;;7.80;99.90;;;;;;5032327;28;20695;-65
2023/05/24 01:12:26;;;;;;;10.93;8.23;;;7.80;99.90;;;;;;5010277;28;20237;-65
2023/05/24 01:15:27;;;;;;;10.40;9.30;;;7.80;99.90;;;;;;5030502;28;20180;-65
2023/05/24 01:18:10;;;;;;;11.40;7.73;;;7.70;99.90;;;;;;5027786;28;20225;-64
2023/05/24 01:20:37;;;;;;;9.87;7.77;;;7.70;99.90;;;;;;5031678;28;20191;-64
2023/05/24 01:23:28;;;;;;;11.60;7.83;;;7.60;99.90;;;;;;5032409;28;20179;-64
2023/05/24 01:26:25;;;;;;;11.17;8.47;;;7.60;99.90;;;;;;5032461;28;20172;-64
2023/05/24 01:28:52;;;;;;;10.27;8.37;;;7.60;99.90;;;;;;5032136;28;20175;-64
2023/05/24 01:31:19;;;;;;;12.63;8.67;;;7.50;99.90;;;;;;5032002;28;20207;-64
2023/05/24 01:33:44;;;;;;;14.57;8.83;;;7.50;99.90;;;;;;5032028;28;20259;-64
2023/05/24 01:36:10;;;;;;;11.23;7.47;;;7.40;99.90;;;;;;5032187;28;20282;-64
2023/05/24 01:38:37;;;;;;;8.20;7.20;;;7.40;99.90;;;;;;5031951;28;20218;-65
2023/05/24 01:41:19;;;;;;;7.33;6.80;;;7.40;99.90;;;;;;5031870;28;20203;-64
2023/05/24 01:43:57;;;;;;;12.73;7.07;;;7.30;99.90;;;;;;5031773;28;20712;-64
2023/05/24 01:46:36;;;;;;;6.90;6.27;;;7.10;99.90;;;;;;5032125;28;20180;-65
2023/05/24 01:49:13;;;;;;;17.17;7.47;;;7.00;99.90;;;;;;5031704;28;20178;-65
2023/05/24 01:51:48;;;;;;;13.33;7.53;;;7.10;99.90;;;;;;5031698;28;20238;-64
2023/05/24 01:54:17;;;;;;;10.90;7.30;;;7.00;99.90;;;;;;5030824;28;20175;-65
2023/05/24 01:56:44;;;;;;;7.70;7.00;;;6.90;99.90;;;;;;5031894;28;20192;-65
2023/05/24 01:59:11;;;;;;;9.20;6.30;;;6.80;99.90;;;;;;5030599;28;20624;-65
2023/05/24 02:01:37;;;;;;;14.93;7.27;;;6.80;99.90;;;;;;5031675;28;20182;-64
2023/05/24 02:04:03;;;;;;;7.30;6.77;;;6.70;99.90;;;;;;5031491;28;20179;-64
2023/05/24 02:06:29;;;;;;;8.87;6.63;;;6.70;99.90;;;;;;5031692;28;20176;-65
2023/05/24 02:08:55;;;;;;;9.33;6.50;;;6.60;99.90;;;;;;5031278;28;20597;-65
2023/05/24 02:11:21;;;;;;;13.33;7.10;;;6.60;99.90;;;;;;5031424;28;20203;-65
2023/05/24 02:13:47;;;;;;;8.57;6.90;;;6.70;99.90;;;;;;5031644;28;20179;-65
2023/05/24 02:16:12;;;;;;;13.43;6.77;;;6.60;99.90;;;;;;5031750;28;20321;-65
2023/05/24 02:18:39;;;;;;;9.47;7.47;;;6.60;99.90;;;;;;5031417;28;20178;-65
2023/05/24 02:21:04;;;;;;;8.10;7.30;;;6.60;99.90;;;;;;5031765;28;20409;-71
2023/05/24 02:23:30;;;;;;;13.53;7.50;;;6.60;99.90;;;;;;5032673;28;20536;-70
2023/05/24 02:25:56;;;;;;;11.47;7.10;;;6.60;99.90;;;;;;5032828;28;20317;-69
2023/05/24 02:28:21;;;;;;;15.67;7.67;;;6.60;99.90;;;;;;5032789;28;20234;-68
2023/05/24 02:30:47;;;;;;;8.80;7.53;;;6.50;99.90;;;;;;5032228;28;20285;-68
2023/05/24 02:33:12;;;;;;;10.63;7.57;;;6.50;99.90;;;;;;5032511;28;20564;-72
2023/05/24 02:35:40;;;;;;;9.43;7.23;;;6.60;99.90;;;;;;5031517;28;20172;-71
2023/05/24 02:38:06;;;;;;;9.30;7.90;;;6.50;99.90;;;;;;5032318;28;20179;-68
2023/05/24 02:40:31;;;;;;;9.00;7.30;;;6.50;99.90;;;;;;5032010;28;20226;-72
2023/05/24 02:42:57;;;;;;;12.67;7.40;;;6.50;99.90;;;;;;5032296;28;20179;-67
2023/05/24 02:45:23;;;;;;;16.00;7.90;;;6.50;99.90;;;;;;5032489;28;20258;-72
2023/05/24 02:47:48;;;;;;;9.87;7.27;;;6.50;99.90;;;;;;5032086;28;20181;-71
2023/05/24 02:50:14;;;;;;;10.93;7.77;;;6.60;99.90;;;;;;5031521;28;20222;-72
2023/05/24 02:52:40;;;;;;;10.53;6.67;;;6.60;99.90;;;;;;5031948;28;20179;-69
2023/05/24 02:55:06;;;;;;;16.03;7.27;;;6.60;99.90;;;;;;5032460;28;20221;-70
2023/05/24 02:57:33;;;;;;;7.33;6.70;;;6.60;99.90;;;;;;5031930;28;20179;-68
2023/05/24 02:59:58;;;;;;;18.40;7.67;;;6.50;99.90;;;;;;5029454;28;20187;-70
2023/05/24 03:02:27;;;;;;;8.13;7.40;;;6.50;99.90;;;;;;5032023;28;20183;-72
2023/05/24 03:04:53;;;;;;;9.00;7.57;;;6.40;99.90;;;;;;5032016;28;20175;-71
2023/05/24 03:07:19;;;;;;;14.63;8.37;;;6.40;99.90;;;;;;5031922;28;20547;-69
2023/05/24 03:09:44;;;;;;;9.77;7.77;;;6.40;99.90;;;;;;5031446;28;20211;-69
2023/05/24 03:12:10;;;;;;;9.00;8.13;;;6.30;99.90;;;;;;5031669;28;20172;-69
2023/05/24 03:14:35;;;;;;;9.07;7.40;;;6.30;99.90;;;;;;5031837;28;20594;-72
2023/05/24 03:17:01;;;;;;;14.37;7.97;;;6.30;99.90;;;;;;5031812;28;20611;-68
2023/05/24 03:19:27;;;;;;;13.67;7.77;;;6.30;99.90;;;;;;5031847;28;20192;-69
2023/05/24 03:21:52;;;;;;;14.93;9.53;;;6.30;99.90;;;;;;5032343;28;20209;-69
2023/05/24 03:24:18;;;;;;;11.93;8.60;;;6.30;99.90;;;;;;5035458;28;20176;-70
2023/05/24 03:26:44;;;;;;;12.20;7.77;;;6.30;99.90;;;;;;5035706;28;20184;-71
2023/05/24 03:29:09;;;;;;;12.50;7.40;;;6.30;99.90;;;;;;5035635;28;20218;-70
2023/05/24 03:31:35;;;;;;;11.67;8.00;;;6.30;99.90;;;;;;5035117;28;20669;-69
2023/05/24 03:34:01;;;;;;;7.73;6.93;;;6.40;99.90;;;;;;5036096;28;20167;-71
2023/05/24 03:36:27;;;;;;;11.03;7.77;;;6.40;99.90;;;;;;5035554;28;20179;-69
2023/05/24 03:38:53;;;;;;;18.93;8.63;;;6.40;99.90;;;;;;5035707;28;20198;-69
2023/05/24 03:41:19;;;;;;;17.53;8.00;;;6.40;99.90;;;;;;5034980;28;20175;-71
2023/05/24 03:43:45;;;;;;;11.37;8.03;;;6.50;99.90;;;;;;5035419;28;20174;-70
2023/05/24 03:46:11;;;;;;;12.00;7.93;;;6.40;99.90;;;;;;5035095;28;20257;-69
2023/05/24 03:48:37;;;;;;;14.13;8.43;;;6.40;99.90;;;;;;5035524;28;20179;-68
2023/05/24 03:51:02;;;;;;;16.00;8.80;;;6.40;99.90;;;;;;5033793;28;20652;-69
2023/05/24 03:53:28;;;;;;;15.40;8.07;;;6.40;99.90;;;;;;5034285;28;20199;-70
2023/05/24 03:55:54;;;;;;;16.83;7.77;;;6.40;99.90;;;;;;5035516;28;20187;-71
2023/05/24 03:58:20;;;;;;;9.27;7.83;;;6.40;99.90;;;;;;5034441;28;20168;-72
2023/05/24 04:00:46;;;;;;;14.83;7.73;;;6.50;99.90;;;;;;5034847;28;20614;-72
2023/05/24 04:03:11;;;;;;;9.80;8.30;;;6.50;99.90;;;;;;5034913;28;20186;-68
2023/05/24 04:05:37;;;;;;;37.70;18.47;;;6.50;99.90;;;;;;5035076;28;20179;-70
2023/05/24 04:08:03;;;;;;;11.37;8.53;;;6.60;99.90;;;;;;5034950;28;20545;-70
2023/05/24 04:10:28;;;;;;;14.57;7.93;;;6.60;99.90;;;;;;5034773;28;20214;-69
2023/05/24 04:12:55;;;;;;;9.60;8.17;;;6.60;99.90;;;;;;5034114;28;20183;-71
2023/05/24 04:15:22;;;;;;;8.93;7.60;;;6.60;99.90;;;;;;5033643;28;20205;-71
2023/05/24 04:17:53;;;;;;;24.30;8.27;;;6.70;99.90;;;;;;5034907;28;20164;-71
2023/05/24 04:20:22;;;;;;;9.40;8.50;;;6.70;99.90;;;;;;5034140;28;20215;-69
2023/05/24 04:22:48;;;;;;;10.73;7.50;;;6.80;99.90;;;;;;5034971;28;20178;-71
2023/05/24 04:25:14;;;;;;;12.90;7.17;;;6.80;99.90;;;;;;5032665;28;20266;-64
2023/05/24 04:27:40;;;;;;;15.37;8.90;;;6.90;99.90;;;;;;5033449;28;20251;-64
2023/05/24 04:30:07;;;;;;;13.77;8.40;;;6.90;99.90;;;;;;5032683;28;20214;-65
2023/05/24 04:32:33;;;;;;;10.13;6.93;;;7.00;99.90;;;;;;5033483;28;20190;-64
2023/05/24 04:35:01;;;;;;;13.30;8.13;;;7.10;99.90;;;;;;5032521;28;20175;-65
2023/05/24 04:37:28;;;;;;;13.07;7.33;;;7.20;99.90;;;;;;5033138;28;20196;-65
2023/05/24 04:39:54;;;;;;;13.70;7.40;;;7.20;99.90;;;;;;5033099;28;20270;-64
2023/05/24 04:42:20;;;;;;;14.27;8.37;;;7.30;99.90;;;;;;5032900;28;20392;-64
2023/05/24 04:44:45;;;;;;;16.17;8.77;;;7.40;99.90;;;;;;5033001;28;20172;-64
2023/05/24 04:47:11;;;;;;;10.43;8.33;;;7.60;99.90;;;;;;5033053;28;20258;-65
2023/05/24 04:49:38;;;;;;;15.77;8.60;;;7.70;99.90;;;;;;5032715;28;20184;-64
2023/05/24 04:52:04;;;;;;;13.17;8.40;;;7.80;99.90;;;;;;5032676;28;20290;-65
2023/05/24 04:54:30;;;;;;;10.60;8.67;;;8.00;99.90;;;;;;5032887;28;20186;-65
2023/05/24 04:56:55;;;;;;;9.07;6.77;;;8.20;99.90;;;;;;5033138;28;20171;-64
2023/05/24 04:59:21;;;;;;;12.47;8.43;;;8.50;99.90;;;;;;5032419;28;20665;-65
2023/05/24 05:01:47;;;;;;;8.73;7.43;;;8.70;99.90;;;;;;5033300;28;20305;-64
2023/05/24 05:04:12;;;;;;;11.80;8.03;;;9.00;99.90;;;;;;5033232;28;20194;-65
2023/05/24 05:06:39;;;;;;;14.30;8.87;;;9.20;99.90;;;;;;5033068;28;20207;-64
2023/05/24 05:09:09;;;;;;;14.87;7.43;;;9.40;99.90;;;;;;5032961;28;20192;-64
2023/05/24 05:11:35;;;;;;;10.63;7.03;;;9.50;99.90;;;;;;5032259;28;20674;-65
2023/05/24 05:14:01;;;;;;;10.37;7.23;;;9.60;99.90;;;;;;5032684;28;20168;-65
2023/05/24 05:16:27;;;;;;;17.43;8.40;;;9.80;99.90;;;;;;5032388;28;20182;-65
2023/05/24 05:18:52;;;;;;;11.10;7.80;;;9.80;99.90;;;;;;5032366;28;20254;-65
2023/05/24 05:21:18;;;;;;;9.57;7.10;;;10.00;99.90;;;;;;5032039;28;20271;-65
2023/05/24 05:23:44;;;;;;;12.60;8.77;;;10.10;99.90;;;;;;5032418;28;20202;-65
2023/05/24 05:26:10;;;;;;;13.13;7.30;;;10.20;99.90;;;;;;5032096;28;20229;-65
2023/05/24 05:28:36;;;;;;;13.27;7.23;;;10.30;99.90;;;;;;5032288;28;20183;-65
2023/05/24 05:31:02;;;;;;;10.87;6.63;;;10.50;99.90;;;;;;5031796;28;20214;-65
2023/05/24 05:33:29;;;;;;;13.50;7.73;;;10.60;99.90;;;;;;5032350;28;20711;-65
2023/05/24 05:35:55;;;;;;;9.73;6.63;;;10.60;99.90;;;;;;5032276;28;20259;-65
2023/05/24 05:38:20;;;;;;;8.37;7.27;;;10.70;99.90;;;;;;5031140;28;20266;-65
2023/05/24 05:40:46;;;;;;;14.00;6.27;;;10.70;99.90;;;;;;5029931;28;20688;-65
2023/05/24 05:43:11;;;;;;;11.50;6.90;;;10.80;99.90;;;;;;5031714;28;20183;-65
2023/05/24 05:45:37;;;;;;;8.53;5.83;;;10.90;99.90;;;;;;5030915;28;20171;-65
2023/05/24 05:48:02;;;;;;;9.70;5.60;;;11.10;99.90;;;;;;5032070;28;20207;-65
2023/05/24 05:50:28;;;;;;;18.53;7.27;;;11.50;99.90;;;;;;5029860;28;20257;-65
2023/05/24 05:52:54;;;;;;;9.83;7.43;;;12.00;99.90;;;;;;5031737;28;20259;-65
2023/05/24 05:55:20;;;;;;;11.30;6.90;;;12.60;99.90;;;;;;5031568;28;20230;-65
2023/05/24 05:57:45;;;;;;;8.37;5.80;;;13.10;99.90;;;;;;5031442;28;20541;-65
2023/05/24 06:00:11;;;;;;;9.93;6.50;;;13.60;99.90;;;;;;5029785;28;20551;-65
2023/05/24 06:02:37;;;;;;;139.33;56.97;;;13.90;99.90;;;;;;5030218;28;20641;-65
2023/05/24 06:05:02;;;;;;;16.40;7.03;;;14.10;99.90;;;;;;5031529;28;20190;-65
2023/05/24 06:07:29;;;;;;;12.07;6.47;;;14.30;99.90;;;;;;5031583;28;20183;-66
2023/05/24 06:09:55;;;;;;;13.63;6.17;;;14.60;99.90;;;;;;5030685;28;20584;-65
2023/05/24 06:12:20;;;;;;;12.13;5.93;;;14.80;99.90;;;;;;5031457;28;20176;-65
2023/05/24 06:14:49;;;;;;;17.37;6.80;;;15.20;99.90;;;;;;5031172;28;20191;-65
2023/05/24 06:17:18;;;;;;;18.47;8.33;;;15.50;99.90;;;;;;5031517;28;20657;-65
2023/05/24 06:19:44;;;;;;;10.00;7.03;;;15.60;99.90;;;;;;5030794;28;20205;-65
2023/05/24 06:22:11;;;;;;;21.90;6.67;;;15.80;99.90;;;;;;5031514;28;20218;-65
2023/05/24 06:24:38;;;;;;;12.87;5.83;;;15.90;99.90;;;;;;5031044;28;20183;-65
2023/05/24 06:27:04;;;;;;;12.90;5.97;;;16.00;99.90;;;;;;5031397;28;20539;-65
2023/05/24 06:29:29;;;;;;;16.50;5.23;;;16.40;99.90;;;;;;5030470;28;20202;-65
2023/05/24 06:31:55;;;;;;;15.37;5.60;;;16.70;99.90;;;;;;5031256;28;20285;-65
2023/05/24 06:34:21;;;;;;;17.80;7.33;;;17.00;99.90;;;;;;5031120;28;20179;-65
2023/05/24 06:36:47;;;;;;;16.70;6.60;;;17.50;99.90;;;;;;5031050;28;20172;-65
2023/05/24 06:39:14;;;;;;;15.20;5.43;;;17.50;99.90;;;;;;5031112;28;20677;-65
2023/05/24 06:41:41;;;;;;;13.07;5.80;;;17.90;99.90;;;;;;5030811;28;20186;-65
2023/05/24 06:44:06;;;;;;;11.97;5.27;;;18.40;99.90;;;;;;5031082;28;20309;-66
2023/05/24 06:46:32;;;;;;;17.75;5.68;;;19.00;99.90;;;;;;5030922;28;20210;-65
2023/05/24 06:48:58;;;;;;;7.57;4.90;;;19.50;99.90;;;;;;5031267;28;20183;-65
2023/05/24 06:51:24;;;;;;;11.03;6.03;;;19.60;99.90;;;;;;5030725;28;20305;-65
2023/05/24 06:53:49;;;;;;;13.85;6.10;;;19.30;99.90;;;;;;5031061;28;20199;-65
2023/05/24 06:56:15;;;;;;;13.57;5.97;;;18.70;99.90;;;;;;5031083;28;20182;-64
2023/05/24 06:58:41;;;;;;;8.30;5.10;;;18.50;99.90;;;;;;5033324;28;20677;-65
2023/05/24 07:01:07;;;;;;;12.13;6.10;;;17.80;99.90;;;;;;5034511;28;20286;-64
2023/05/24 07:03:33;;;;;;;11.83;6.10;;;17.20;99.90;;;;;;5035047;28;20266;-64
2023/05/24 07:05:59;;;;;;;14.20;6.20;;;16.40;99.90;;;;;;5034743;28;20195;-64
2023/05/24 07:08:25;;;;;;;11.93;6.50;;;15.90;99.90;;;;;;5034536;28;20182;-64
2023/05/24 07:10:52;;;;;;;12.87;7.43;;;15.50;99.90;;;;;;5033601;28;20677;-65
2023/05/24 07:13:17;;;;;;;15.27;6.93;;;15.40;99.90;;;;;;5033804;28;20183;-65
2023/05/24 07:15:44;;;;;;;15.87;6.73;;;15.50;99.90;;;;;;5034645;28;20168;-64
2023/05/24 07:18:10;;;;;;;17.33;7.13;;;15.90;99.90;;;;;;5031948;28;20535;-65
2023/05/24 07:20:36;;;;;;;11.13;6.90;;;16.50;99.90;;;;;;5034168;28;20198;-65
2023/05/24 07:23:02;;;;;;;16.23;7.30;;;16.70;99.90;;;;;;5034683;28;20206;-64
2023/05/24 07:25:28;;;;;;;11.37;6.83;;;16.70;99.90;;;;;;5033621;28;20544;-65
2023/05/24 07:27:53;;;;;;;16.20;7.70;;;16.70;99.90;;;;;;5034538;28;20262;-65
2023/05/24 07:30:19;;;;;;;8.87;6.80;;;17.10;99.90;;;;;;5033987;28;20290;-65
2023/05/24 07:32:45;;;;;;;14.57;7.53;;;17.50;99.90;;;;;;5034416;28;20247;-64
2023/05/24 07:35:14;;;;;;;12.67;7.33;;;17.60;99.90;;;;;;5034523;28;20210;-65
2023/05/24 07:37:40;;;;;;;16.60;7.00;;;17.60;99.90;;;;;;5034319;28;20580;-64
2023/05/24 07:40:10;;;;;;;16.40;8.80;;;17.60;99.90;;;;;;5034035;28;20217;-65
2023/05/24 07:42:36;;;;;;;16.83;7.50;;;17.30;99.90;;;;;;5034185;28;20182;-65
2023/05/24 07:45:02;;;;;;;16.33;7.77;;;17.20;99.90;;;;;;5034356;28;20164;-65
2023/05/24 07:47:27;;;;;;;19.23;8.83;;;16.80;99.90;;;;;;5034241;28;20182;-65
2023/05/24 07:49:53;;;;;;;15.37;8.10;;;16.50;99.90;;;;;;5031268;28;20290;-65
2023/05/24 07:52:19;;;;;;;13.90;7.27;;;16.30;99.90;;;;;;5034071;28;20179;-64
2023/05/24 07:54:45;;;;;;;16.30;8.67;;;16.30;99.90;;;;;;5033999;28;20437;-65
2023/05/24 07:57:11;;;;;;;17.20;9.17;;;16.30;99.90;;;;;;5034152;28;20167;-65
2023/05/24 07:59:37;;;;;;;17.03;8.77;;;16.50;99.90;;;;;;5032403;28;20356;-66
2023/05/24 08:02:04;;;;;;;19.97;8.50;;;17.00;99.90;;;;;;5032695;28;20719;-66
2023/05/24 08:04:31;;;;;;;20.67;8.97;;;16.90;99.90;;;;;;5033804;28;20213;-66
2023/05/24 08:06:58;;;;;;;16.80;8.70;;;16.80;99.90;;;;;;5033891;28;20416;-65
2023/05/24 08:09:23;;;;;;;15.20;8.30;;;17.10;99.90;;;;;;5031462;28;20203;-65
2023/05/24 08:11:49;;;;;;;18.23;9.87;;;17.60;99.90;;;;;;5032289;28;20269;-65
2023/05/24 08:14:15;;;;;;;13.80;8.57;;;17.70;99.90;;;;;;5033385;28;20630;-65
2023/05/24 08:16:40;;;;;;;14.90;7.60;;;18.00;99.90;;;;;;5032584;28;20243;-64
2023/05/24 08:19:07;;;;;;;15.37;7.90;;;18.10;99.90;;;;;;5033174;28;20234;-66
2023/05/24 08:21:32;;;;;;;15.90;7.73;;;18.20;99.90;;;;;;5027660;28;20302;-66
2023/05/24 08:23:59;;;;;;;16.00;7.70;;;18.10;99.90;;;;;;5014912;28;20268;-65
2023/05/24 08:26:25;;;;;;;10.10;7.57;;;17.70;99.90;;;;;;5033324;28;20187;-65
2023/05/24 08:28:51;;;;;;;9.37;7.33;;;17.50;99.90;;;;;;5032176;28;20630;-65
2023/05/24 08:31:17;;;;;;;17.87;7.60;;;17.30;99.90;;;;;;5032729;28;20213;-65
2023/05/24 08:33:42;;;;;;;16.43;6.77;;;16.90;99.90;;;;;;5032887;28;20187;-65
2023/05/24 08:36:08;;;;;;;11.80;6.57;;;16.40;99.90;;;;;;5033068;28;20172;-65
2023/05/24 08:38:34;;;;;;;18.83;6.50;;;16.00;99.90;;;;;;5032893;28;20183;-65
2023/05/24 08:41:04;;;;;;;12.27;7.33;;;15.60;99.90;;;;;;5032841;28;20250;-65
2023/05/24 08:43:30;;;;;;;13.13;7.20;;;15.40;99.90;;;;;;5033111;28;20333;-66
2023/05/24 08:45:57;;;;;;;13.40;6.37;;;15.40;99.90;;;;;;5033239;28;20258;-65
2023/05/24 08:48:25;;;;;;;15.13;7.20;;;15.20;99.90;;;;;;5032964;28;20179;-64
2023/05/24 08:50:52;;;;;;;11.27;6.60;;;15.10;99.90;;;;;;5032615;28;20707;-65
2023/05/24 08:53:20;;;;;;;14.37;6.93;;;15.10;99.90;;;;;;5033257;28;20183;-65
2023/05/24 08:55:48;;;;;;;13.93;6.33;;;15.30;99.90;;;;;;5032836;28;20564;-65
2023/05/24 08:58:15;;;;;;;17.53;6.60;;;16.00;99.90;;;;;;5032939;28;20314;-65
2023/05/24 09:00:41;;;;;;;12.33;6.60;;;16.40;99.90;;;;;;5032258;28;20746;-65
2023/05/24 09:03:08;;;;;;;14.10;7.43;;;16.30;99.90;;;;;;5032881;28;20276;-65
2023/05/24 09:05:34;;;;;;;13.53;6.37;;;16.30;99.90;;;;;;5032016;28;20270;-65
2023/05/24 09:08:01;;;;;;;16.13;7.20;;;16.30;99.90;;;;;;5032176;28;20175;-65
2023/05/24 09:10:28;;;;;;;11.67;7.30;;;16.20;99.90;;;;;;5031860;28;20219;-65
2023/05/24 09:12:57;;;;;;;12.10;6.37;;;16.10;99.90;;;;;;5031765;28;20190;-65
2023/05/24 09:15:23;;;;;;;13.73;6.73;;;16.00;99.90;;;;;;5032559;28;20202;-65
2023/05/24 09:17:49;;;;;;;15.57;6.83;;;16.10;99.90;;;;;;5032825;28;20184;-65
2023/05/24 09:20:14;;;;;;;15.60;7.30;;;16.20;99.90;;;;;;5031507;28;20703;-65
2023/05/24 09:22:41;;;;;;;14.33;6.57;;;16.20;99.90;;;;;;5032061;28;20283;-65
2023/05/24 09:25:08;;;;;;;9.03;7.17;;;16.30;99.90;;;;;;5032201;28;20198;-65
2023/05/24 09:27:34;;;;;;;11.97;7.57;;;16.40;99.90;;;;;;5031774;28;20278;-65
2023/05/24 09:30:03;;;;;;;15.40;6.80;;;16.90;99.90;;;;;;5030374;28;20303;-66
2023/05/24 09:32:30;;;;;;;10.20;5.80;;;17.70;99.90;;;;;;5031772;28;20171;-65
2023/05/24 09:34:57;;;;;;;10.67;6.47;;;18.50;99.90;;;;;;5032336;28;20246;-66
2023/05/24 09:37:26;;;;;;;11.27;6.20;;;18.80;99.90;;;;;;5019825;28;20190;-65
2023/05/24 09:39:52;;;;;;;13.35;5.85;;;19.40;99.90;;;;;;5031545;28;20230;-65
2023/05/24 09:42:26;;;;;;;9.02;5.30;;;19.70;99.90;;;;;;5031595;28;20179;-65
2023/05/24 09:45:09;;;;;;;10.15;5.82;;;19.80;99.90;;;;;;5030955;28;20183;-65
2023/05/24 09:47:36;;;;;;;12.73;6.32;;;19.60;99.90;;;;;;5029695;28;20194;-65
2023/05/24 09:50:04;;;;;;;10.90;6.80;;;19.40;99.90;;;;;;5031093;28;20207;-65
2023/05/24 09:52:30;;;;;;;12.53;5.67;;;19.30;99.90;;;;;;5011837;28;20179;-66
2023/05/24 09:54:55;;;;;;;10.10;5.73;;;18.90;99.90;;;;;;5024167;28;20188;-65
2023/05/24 09:57:21;;;;;;;10.20;5.60;;;18.80;99.90;;;;;;5032138;28;20176;-65
2023/05/24 09:59:48;;;;;;;7.77;5.53;;;19.20;99.90;;;;;;5030963;28;20261;-65
2023/05/24 10:02:17;;;;;;;11.33;5.80;;;19.30;99.90;;;;;;5031782;28;20681;-66
2023/05/24 10:04:42;;;;;;;11.23;5.55;;;19.50;99.90;;;;;;5031223;28;20175;-66
2023/05/24 10:07:09;;;;;;;7.93;5.32;;;20.00;99.90;;;;;;5031736;28;20171;-65
2023/05/24 10:09:35;;;;;;;12.32;6.05;;;20.40;99.90;;;;;;5028196;28;20264;-66
2023/05/24 10:12:05;;;;;;;13.50;6.03;;;20.40;99.90;;;;;;5030436;28;20219;-66
2023/05/24 10:14:35;;;;;;;12.03;7.30;;;20.40;99.90;;;;;;5031522;28;20171;-65
2023/05/24 10:17:05;;;;;;;10.35;7.07;;;20.00;99.90;;;;;;5031756;28;20178;-66
2023/05/24 10:19:32;;;;;;;9.57;6.00;;;19.70;99.90;;;;;;5031068;28;20559;-66
2023/05/24 10:22:00;;;;;;;11.05;4.95;;;19.80;99.90;;;;;;5030872;28;20175;-66
2023/05/24 10:24:32;;;;;;;10.30;5.88;;;20.10;99.90;;;;;;5031248;28;20637;-66
2023/05/24 10:27:01;;;;;;;8.60;5.37;;;20.00;99.90;;;;;;5031779;28;20188;-66
2023/05/24 10:29:54;;;;;;;11.63;6.40;;;19.90;99.90;;;;;;5031038;28;20202;-66
2023/05/24 10:32:22;;;;;;;10.43;5.90;;;20.10;99.90;;;;;;5030386;28;20195;-65
2023/05/24 10:34:49;;;;;;;10.27;5.23;;;19.60;99.90;;;;;;5031273;28;20179;-66
2023/05/24 10:37:16;;;;;;;12.17;5.03;;;19.10;99.90;;;;;;5031378;28;20210;-65
2023/05/24 10:39:42;;;;;;;9.60;5.40;;;18.70;99.90;;;;;;5028619;28;20669;-66
2023/05/24 10:42:08;;;;;;;11.27;5.87;;;18.00;99.90;;;;;;5031210;28;20213;-66
2023/05/24 10:44:34;;;;;;;10.37;5.33;;;17.90;99.90;;;;;;5030775;28;20172;-65
2023/05/24 10:47:09;;;;;;;14.23;5.70;;;17.70;99.90;;;;;;5031277;28;20178;-65
2023/05/24 10:49:57;;;;;;;7.50;5.30;;;17.80;99.90;;;;;;5030667;28;20193;-66
2023/05/24 10:52:33;;;;;;;9.87;5.83;;;17.60;99.90;;;;;;5031439;28;20249;-66
2023/05/24 10:55:09;;;;;;;11.70;5.33;;;17.80;99.90;;;;;;5031265;28;20171;-66
2023/05/24 10:57:35;;;;;;;10.90;4.80;;;18.40;99.90;;;;;;5030975;28;20206;-66
2023/05/24 11:00:19;;;;;;;7.72;5.07;;;19.20;99.90;;;;;;5029764;28;20534;-65
2023/05/24 11:03:08;;;;;;;10.48;5.28;;;19.50;99.90;;;;;;5031061;28;20179;-65
2023/05/24 11:05:35;;;;;;;8.90;4.65;;;19.60;99.90;;;;;;5031155;28;20183;-65
2023/05/24 11:08:02;;;;;;;10.40;5.45;;;19.40;99.90;;;;;;5031132;28;20171;-66
2023/05/24 11:10:31;;;;;;;10.30;5.05;;;19.30;99.90;;;;;;5029055;28;20202;-66
2023/05/24 11:13:01;;;;;;;7.73;4.97;;;19.40;99.90;;;;;;5011444;28;20567;-66
2023/05/24 11:15:28;;;;;;;8.63;4.78;;;19.40;99.90;;;;;;5011370;28;20176;-65
2023/05/24 11:18:11;;;;;;;7.47;4.70;;;19.50;99.90;;;;;;5010449;28;20247;-65
2023/05/24 11:20:37;;;;;;;6.63;4.80;;;19.70;99.90;;;;;;5010438;28;20588;-66
2023/05/24 11:23:06;;;;;;;9.73;5.22;;;19.70;99.90;;;;;;5010735;28;20185;-66
2023/05/24 11:25:32;;;;;;;8.50;5.20;;;19.70;99.90;;;;;;5011079;28;20168;-65
2023/05/24 11:28:00;;;;;;;10.13;5.87;;;19.60;99.90;;;;;;5011228;28;20255;-66
2023/05/24 11:30:25;;;;;;;6.67;4.87;;;19.40;99.90;;;;;;5010647;28;20200;-65
2023/05/24 11:32:51;;;;;;;9.33;5.47;;;19.30;99.90;;;;;;5011510;28;20561;-65
2023/05/24 11:35:18;;;;;;;7.47;5.00;;;19.40;99.90;;;;;;5011150;28;20173;-65
2023/05/24 11:37:44;;;;;;;6.33;4.70;;;19.50;99.90;;;;;;5011039;28;20184;-65
2023/05/24 11:40:10;;;;;;;10.73;5.43;;;19.30;99.90;;;;;;5009514;28;20672;-66
2023/05/24 11:42:38;;;;;;;9.00;5.40;;;19.30;99.90;;;;;;5009645;28;20672;-65
2023/05/24 11:45:06;;;;;;;10.02;5.63;;;19.30;99.90;;;;;;5020093;28;20179;-65
2023/05/24 11:47:36;;;;;;;10.27;5.40;;;19.60;99.90;;;;;;5034246;28;20298;-65
2023/05/24 11:50:02;;;;;;;12.33;5.67;;;19.70;99.90;;;;;;5033985;28;20200;-65
2023/05/24 11:52:28;;;;;;;9.18;5.47;;;19.80;99.90;;;;;;5034077;28;20187;-65
2023/05/24 11:54:53;;;;;;;8.43;5.77;;;19.40;99.90;;;;;;5034230;28;20547;-65
2023/05/24 11:57:37;;;;;;;11.60;6.63;;;19.20;99.90;;;;;;5034295;28;20164;-65
2023/05/24 12:00:05;;;;;;;21.17;19.40;;;18.80;99.90;;;;;;5034130;28;20191;-65
2023/05/24 12:02:31;;;;;;;42.47;39.10;;;18.30;99.90;;;;;;5033919;28;20195;-65
2023/05/24 12:05:10;;;;;;;15.43;6.53;;;17.90;99.90;;;;;;5034062;28;20250;-64
2023/05/24 12:07:36;;;;;;;9.77;6.47;;;17.50;99.90;;;;;;5033844;28;20254;-64
2023/05/24 12:10:03;;;;;;;8.20;6.87;;;17.20;99.90;;;;;;5033602;28;20206;-64
2023/05/24 12:12:29;;;;;;;11.47;6.47;;;17.00;99.90;;;;;;5033841;28;20172;-64
2023/05/24 12:14:55;;;;;;;9.93;6.00;;;17.10;99.90;;;;;;5031697;28;20175;-64
2023/05/24 12:17:21;;;;;;;26.03;17.20;;;17.20;99.90;;;;;;5033184;28;20255;-64
2023/05/24 12:19:52;;;;;;;15.30;7.50;;;17.30;99.90;;;;;;5033098;28;20274;-65
2023/05/24 12:22:18;;;;;;;9.03;6.50;;;17.40;99.90;;;;;;5033285;28;20179;-65
2023/05/24 12:24:47;;;;;;;11.47;6.47;;;17.50;99.90;;;;;;5033357;28;20222;-65
2023/05/24 12:27:13;;;;;;;9.03;6.30;;;17.40;99.90;;;;;;5033861;28;20179;-64
2023/05/24 12:29:41;;;;;;;14.47;6.60;;;17.20;99.90;;;;;;5032942;28;20217;-65
2023/05/24 12:32:11;;;;;;;8.07;6.27;;;17.20;99.90;;;;;;5033642;28;20195;-65
2023/05/24 12:34:39;;;;;;;8.37;6.20;;;17.30;99.90;;;;;;5033095;28;20171;-64
2023/05/24 12:37:07;;;;;;;7.27;5.93;;;17.40;99.90;;;;;;5032904;28;20254;-65
2023/05/24 12:39:35;;;;;;;8.23;6.10;;;17.70;99.90;;;;;;5032773;28;20201;-65
2023/05/24 12:42:02;;;;;;;8.37;5.50;;;17.80;99.90;;;;;;5033357;28;20164;-65
2023/05/24 12:44:34;;;;;;;12.97;9.87;;;17.80;99.90;;;;;;5031204;28;20179;-65